createdAt,value
2022-10-19T00:01:12.002Z,3.20
2022-10-19T00:03:39.865Z,3.30
2022-10-19T00:06:18.293Z,3.30
2022-10-19T00:08:45.707Z,3.30
2022-10-19T00:11:13.609Z,3.20
2022-10-19T00:13:41.234Z,3.20
2022-10-19T00:16:14.068Z,3.10
2022-10-19T00:18:43.553Z,3.00
2022-10-19T00:21:14.369Z,2.90
2022-10-19T00:23:42.308Z,2.90
2022-10-19T00:26:09.911Z,2.80
2022-10-19T00:28:37.577Z,2.90
2022-10-19T00:31:09.904Z,2.90
2022-10-19T00:33:37.631Z,2.90
2022-10-19T00:36:06.235Z,2.80
2022-10-19T00:38:33.643Z,2.70
2022-10-19T00:41:02.548Z,2.80
2022-10-19T00:43:31.878Z,2.70
2022-10-19T00:45:59.088Z,2.70
2022-10-19T00:48:33.269Z,2.70
2022-10-19T00:51:01.264Z,2.60
2022-10-19T00:53:30.516Z,2.70
2022-10-19T00:55:59.990Z,2.60
2022-10-19T00:58:28.248Z,2.50
2022-10-19T01:00:55.873Z,2.50
2022-10-19T01:03:23.208Z,2.60
2022-10-19T01:05:50.834Z,2.50
2022-10-19T01:08:18.476Z,2.50
2022-10-19T01:10:46.349Z,2.40
2022-10-19T01:13:13.829Z,2.40
2022-10-19T01:15:47.053Z,2.40
2022-10-19T01:18:30.737Z,2.30
2022-10-19T01:21:16.452Z,2.30
2022-10-19T01:24:18.315Z,2.30
2022-10-19T01:27:04.311Z,2.20
2022-10-19T01:29:56.034Z,2.20
2022-10-19T01:32:43.671Z,2.20
2022-10-19T01:35:47.147Z,2.20
2022-10-19T01:38:31.034Z,2.10
2022-10-19T01:41:30.874Z,2.10
2022-10-19T01:44:39.749Z,2.00
2022-10-19T01:47:29.680Z,2.00
2022-10-19T01:50:06.153Z,1.90
2022-10-19T01:52:34.307Z,1.80
2022-10-19T01:55:04.556Z,1.80
2022-10-19T01:57:39.192Z,1.80
2022-10-19T02:00:08.322Z,1.80
2022-10-19T02:02:38.938Z,1.70
2022-10-19T02:05:07.600Z,1.70
2022-10-19T02:07:37.336Z,1.70
2022-10-19T02:10:05.104Z,1.70
2022-10-19T02:12:34.353Z,1.70
2022-10-19T02:15:07.616Z,1.80
2022-10-19T02:17:42.038Z,1.80
2022-10-19T02:20:10.054Z,1.80
2022-10-19T02:22:37.973Z,1.80
2022-10-19T02:25:06.804Z,1.80
2022-10-19T02:27:35.149Z,1.70
2022-10-19T02:30:03.035Z,1.60
2022-10-19T02:32:30.717Z,1.60
2022-10-19T02:34:58.282Z,1.50
2022-10-19T02:37:26.022Z,1.60
2022-10-19T02:39:53.512Z,1.60
2022-10-19T02:42:39.347Z,1.60
2022-10-19T02:45:22.557Z,1.50
2022-10-19T02:48:06.211Z,1.40
2022-10-19T02:50:34.177Z,1.40
2022-10-19T02:53:01.812Z,1.40
2022-10-19T02:55:31.236Z,1.40
2022-10-19T02:57:58.625Z,1.40
2022-10-19T03:00:25.847Z,1.30
2022-10-19T03:02:53.234Z,1.30
2022-10-19T03:05:20.374Z,1.30
2022-10-19T03:07:47.607Z,1.30
2022-10-19T03:10:15.113Z,1.30
2022-10-19T03:12:42.339Z,1.30
2022-10-19T03:15:15.151Z,1.30
2022-10-19T03:17:42.856Z,1.20
2022-10-19T03:20:11.022Z,1.30
2022-10-19T03:22:38.733Z,1.30
2022-10-19T03:25:06.872Z,1.30
2022-10-19T03:27:34.321Z,1.30
2022-10-19T03:30:02.059Z,1.30
2022-10-19T03:32:29.241Z,1.30
2022-10-19T03:34:56.356Z,1.30
2022-10-19T03:37:23.566Z,1.20
2022-10-19T03:39:50.972Z,1.20
2022-10-19T03:42:18.175Z,1.20
2022-10-19T03:44:45.588Z,1.20
2022-10-19T03:47:12.727Z,1.20
2022-10-19T03:49:40.501Z,1.20
2022-10-19T03:52:10.421Z,1.20
2022-10-19T03:54:37.932Z,1.20
2022-10-19T03:57:06.028Z,1.20
2022-10-19T03:59:33.204Z,1.20
2022-10-19T04:02:00.448Z,1.20
2022-10-19T04:04:28.013Z,1.30
2022-10-19T04:06:55.264Z,1.20
2022-10-19T04:09:24.466Z,1.30
2022-10-19T04:11:52.072Z,1.20
2022-10-19T04:14:32.260Z,1.10
2022-10-19T04:17:02.512Z,1.20
2022-10-19T04:19:29.743Z,1.20
2022-10-19T04:21:57.443Z,1.20
2022-10-19T04:24:25.472Z,1.20
2022-10-19T04:26:55.332Z,1.20
2022-10-19T04:29:27.893Z,1.20
2022-10-19T04:31:58.139Z,1.10
2022-10-19T04:34:25.349Z,1.10
2022-10-19T04:36:53.989Z,1.10
2022-10-19T04:39:21.318Z,1.10
2022-10-19T04:41:48.771Z,1.20
2022-10-19T04:44:16.037Z,1.20
2022-10-19T04:46:43.661Z,1.20
2022-10-19T04:49:10.906Z,1.20
2022-10-19T04:51:38.433Z,1.20
2022-10-19T04:54:06.094Z,1.30
2022-10-19T04:56:33.873Z,1.40
2022-10-19T04:59:01.637Z,1.40
2022-10-19T05:01:31.212Z,1.40
2022-10-19T05:04:00.853Z,1.40
2022-10-19T05:06:30.952Z,1.40
2022-10-19T05:08:58.496Z,1.40
2022-10-19T05:11:26.268Z,1.30
2022-10-19T05:13:53.588Z,1.40
2022-10-19T05:16:23.634Z,1.40
2022-10-19T05:18:53.792Z,1.30
2022-10-19T05:21:22.000Z,1.30
2022-10-19T05:23:53.016Z,1.20
2022-10-19T05:26:22.430Z,1.20
2022-10-19T05:28:51.505Z,1.20
2022-10-19T05:31:20.953Z,1.10
2022-10-19T05:33:48.311Z,1.10
2022-10-19T05:36:21.985Z,1.10
2022-10-19T05:38:50.833Z,1.00
2022-10-19T05:41:18.933Z,1.10
2022-10-19T05:43:47.252Z,1.00
2022-10-19T05:46:19.872Z,1.10
2022-10-19T05:48:48.161Z,1.10
2022-10-19T05:51:20.869Z,1.10
2022-10-19T05:53:48.364Z,1.20
2022-10-19T05:56:28.034Z,1.10
2022-10-19T05:59:00.716Z,1.30
2022-10-19T06:01:29.663Z,1.30
2022-10-19T06:03:58.898Z,1.30
2022-10-19T06:06:27.612Z,1.40
2022-10-19T06:08:56.818Z,1.40
2022-10-19T06:11:27.955Z,1.50
2022-10-19T06:13:59.231Z,1.50
2022-10-19T06:16:27.457Z,1.40
2022-10-19T06:18:55.112Z,1.50
2022-10-19T06:21:24.881Z,1.50
2022-10-19T06:23:54.340Z,1.50
2022-10-19T06:26:22.093Z,1.70
2022-10-19T06:28:50.752Z,1.90
2022-10-19T06:31:18.610Z,1.90
2022-10-19T06:33:49.207Z,2.00
2022-10-19T06:36:22.942Z,2.10
2022-10-19T06:38:51.101Z,2.30
2022-10-19T06:41:18.592Z,2.40
2022-10-19T06:43:50.978Z,2.50
2022-10-19T06:46:23.653Z,2.80
2022-10-19T06:48:56.532Z,3.00
2022-10-19T06:51:26.295Z,3.20
2022-10-19T06:53:57.145Z,3.40
2022-10-19T06:56:26.185Z,3.50
2022-10-19T06:58:54.711Z,3.50
2022-10-19T07:01:22.968Z,3.60
2022-10-19T07:03:54.221Z,3.60
2022-10-19T07:06:22.149Z,3.60
2022-10-19T07:08:50.168Z,3.70
2022-10-19T07:11:20.395Z,3.90
2022-10-19T07:13:48.033Z,3.70
2022-10-19T07:16:20.654Z,3.70
2022-10-19T07:18:51.314Z,3.60
2022-10-19T07:21:20.771Z,3.80
2022-10-19T07:23:48.760Z,4.10
2022-10-19T07:26:23.684Z,4.40
2022-10-19T07:28:51.341Z,4.50
2022-10-19T07:31:21.216Z,4.70
2022-10-19T07:33:53.391Z,5.00
2022-10-19T07:36:21.532Z,5.20
2022-10-19T07:38:48.832Z,5.40
2022-10-19T07:41:19.172Z,5.40
2022-10-19T07:43:48.331Z,5.40
2022-10-19T07:46:25.548Z,5.30
2022-10-19T07:48:53.791Z,5.30
2022-10-19T07:51:22.347Z,5.30
2022-10-19T07:53:50.252Z,5.20
2022-10-19T07:56:20.339Z,5.30
2022-10-19T07:58:48.160Z,5.20
2022-10-19T08:01:21.798Z,5.20
2022-10-19T08:06:39.067Z,5.00
2022-10-19T08:09:06.804Z,5.00
2022-10-19T08:11:35.919Z,5.10
2022-10-19T08:14:04.264Z,5.00
2022-10-19T08:16:40.679Z,4.90
2022-10-19T08:19:10.557Z,4.60
2022-10-19T08:21:40.200Z,4.90
2022-10-19T08:24:08.560Z,5.00
2022-10-19T08:26:38.660Z,5.10
2022-10-19T08:29:12.492Z,5.60
2022-10-19T08:31:41.127Z,6.00
2022-10-19T08:34:08.859Z,6.20
2022-10-19T08:36:37.391Z,6.40
2022-10-19T08:39:06.716Z,6.30
2022-10-19T08:42:02.140Z,6.30
2022-10-19T08:44:48.062Z,6.20
2022-10-19T08:47:42.338Z,6.50
2022-10-19T08:50:46.660Z,6.50
2022-10-19T08:53:24.824Z,6.50
2022-10-19T08:56:45.700Z,6.50
2022-10-19T08:59:46.500Z,6.60
2022-10-19T09:02:28.180Z,6.60
2022-10-19T09:05:02.984Z,6.80
2022-10-19T09:07:37.180Z,7.00
2022-10-19T09:10:30.113Z,6.60
2022-10-19T09:13:02.079Z,6.60
2022-10-19T09:15:46.379Z,6.40
2022-10-19T09:18:25.279Z,6.50
2022-10-19T09:21:13.480Z,6.80
2022-10-19T09:23:49.879Z,7.00
2022-10-19T09:26:23.226Z,7.20
2022-10-19T09:29:03.463Z,7.30
2022-10-19T09:31:40.481Z,7.20
2022-10-19T09:34:34.536Z,7.20
2022-10-19T09:37:01.806Z,7.20
2022-10-19T09:39:31.262Z,7.20
2022-10-19T09:42:10.546Z,7.20
2022-10-19T09:44:37.920Z,7.40
2022-10-19T09:47:35.258Z,7.40
2022-10-19T09:50:20.103Z,7.60
2022-10-19T09:52:59.121Z,7.80
2022-10-19T09:58:14.345Z,8.00
2022-10-19T10:00:44.559Z,8.00
2022-10-19T10:03:32.935Z,7.90
2022-10-19T10:06:11.029Z,8.00
2022-10-19T10:08:45.001Z,8.10
2022-10-19T10:11:15.679Z,8.30
2022-10-19T10:13:51.795Z,8.50
2022-10-19T10:16:23.164Z,8.40
2022-10-19T10:18:55.354Z,8.40
2022-10-19T10:21:26.508Z,8.20
2022-10-19T10:24:17.194Z,8.20
2022-10-19T10:26:50.214Z,8.30
2022-10-19T10:29:20.099Z,8.30
2022-10-19T10:32:19.959Z,8.30
2022-10-19T10:34:52.220Z,8.50
2022-10-19T10:37:28.760Z,8.50
2022-10-19T10:40:01.824Z,8.40
2022-10-19T10:42:41.766Z,8.50
2022-10-19T10:45:26.274Z,8.50
2022-10-19T10:47:54.361Z,8.30
2022-10-19T10:50:31.552Z,8.20
2022-10-19T10:53:03.188Z,8.00
2022-10-19T10:55:32.312Z,8.10
2022-10-19T10:58:21.237Z,8.30
2022-10-19T11:00:51.148Z,8.50
2022-10-19T11:03:27.236Z,8.60
2022-10-19T11:06:00.379Z,8.60
2022-10-19T11:08:36.903Z,8.70
2022-10-19T11:11:46.810Z,8.70
2022-10-19T11:14:27.303Z,8.60
2022-10-19T11:16:57.693Z,8.80
2022-10-19T11:19:35.875Z,8.80
2022-10-19T11:22:29.859Z,8.80
2022-10-19T11:25:10.488Z,8.70
2022-10-19T11:28:01.719Z,8.60
2022-10-19T11:30:33.140Z,8.60
2022-10-19T11:33:52.526Z,8.50
2022-10-19T11:36:42.904Z,8.70
2022-10-19T11:39:29.160Z,9.00
2022-10-19T11:41:59.330Z,9.20
2022-10-19T11:44:35.521Z,9.30
2022-10-19T11:47:30.007Z,9.40
2022-10-19T11:50:18.890Z,9.50
2022-10-19T11:53:16.295Z,9.40
2022-10-19T11:56:11.168Z,9.40
2022-10-19T11:59:15.701Z,9.50
2022-10-19T12:02:18.000Z,9.70
2022-10-19T12:05:04.970Z,9.80
2022-10-19T12:07:52.717Z,9.80
2022-10-19T12:10:42.524Z,9.70
2022-10-19T12:13:16.460Z,9.60
2022-10-19T12:15:55.280Z,9.70
2022-10-19T12:18:42.446Z,9.50
2022-10-19T12:21:18.656Z,9.60
2022-10-19T12:23:50.060Z,9.70
2022-10-19T12:26:20.494Z,9.30
2022-10-19T12:28:56.014Z,9.10
2022-10-19T12:31:25.540Z,9.00
2022-10-19T12:34:02.765Z,8.90
2022-10-19T12:36:41.940Z,9.10
2022-10-19T12:39:15.666Z,8.90
2022-10-19T12:42:11.059Z,8.90
2022-10-19T12:44:59.561Z,8.80
2022-10-19T12:47:26.903Z,8.70
2022-10-19T12:49:55.791Z,8.50
2022-10-19T12:52:49.671Z,8.60
2022-10-19T12:55:17.119Z,8.70
2022-10-19T12:57:50.503Z,8.60
2022-10-19T13:00:24.109Z,8.50
2022-10-19T13:02:59.983Z,8.60
2022-10-19T13:05:31.600Z,8.40
2022-10-19T13:08:03.861Z,8.10
2022-10-19T13:10:32.847Z,8.20
2022-10-19T13:13:01.848Z,8.10
2022-10-19T13:15:38.499Z,8.20
2022-10-19T13:18:14.019Z,8.20
2022-10-19T13:20:48.223Z,8.20
2022-10-19T13:23:15.381Z,8.10
2022-10-19T13:25:43.742Z,7.90
2022-10-19T13:28:11.320Z,7.80
2022-10-19T13:30:38.795Z,7.90
2022-10-19T13:33:33.343Z,7.80
2022-10-19T13:36:00.996Z,7.80
2022-10-19T13:38:59.337Z,7.90
2022-10-19T13:41:44.299Z,7.90
2022-10-19T13:44:22.121Z,7.90
2022-10-19T13:47:12.988Z,7.70
2022-10-19T13:50:11.558Z,7.60
2022-10-19T13:53:04.251Z,7.40
2022-10-19T13:55:34.424Z,7.40
2022-10-19T13:58:39.198Z,7.30
2022-10-19T14:01:44.163Z,7.30
2022-10-19T14:04:36.889Z,7.20
2022-10-19T14:07:33.909Z,7.10
2022-10-19T14:10:16.899Z,7.00
2022-10-19T14:12:45.541Z,7.10
2022-10-19T14:15:22.001Z,7.20
2022-10-19T14:17:49.761Z,7.20
2022-10-19T14:20:37.109Z,7.20
2022-10-19T14:23:25.730Z,7.10
2022-10-19T14:26:05.050Z,7.10
2022-10-19T14:28:33.803Z,6.90
2022-10-19T14:31:03.282Z,7.00
2022-10-19T14:33:36.116Z,6.80
2022-10-19T14:36:03.740Z,6.80
2022-10-19T14:38:40.562Z,6.80
2022-10-19T14:41:29.321Z,7.00
2022-10-19T14:43:57.477Z,6.90
2022-10-19T14:46:30.502Z,6.70
2022-10-19T14:49:06.400Z,6.70
2022-10-19T14:51:42.808Z,6.80
2022-10-19T14:54:39.002Z,6.70
2022-10-19T14:57:23.758Z,6.70
2022-10-19T14:59:58.696Z,6.70
2022-10-19T15:02:44.471Z,6.60
2022-10-19T15:05:21.920Z,6.40
2022-10-19T15:07:49.980Z,6.30
2022-10-19T15:10:20.902Z,6.20
2022-10-19T15:12:50.680Z,6.10
2022-10-19T15:15:27.063Z,5.90
2022-10-19T15:18:02.583Z,5.80
2022-10-19T15:20:44.183Z,5.70
2022-10-19T15:23:40.833Z,5.50
2022-10-19T15:26:28.210Z,5.40
2022-10-19T15:29:08.502Z,5.20
2022-10-19T15:31:36.135Z,5.10
2022-10-19T15:34:05.550Z,5.10
2022-10-19T15:36:33.863Z,5.00
2022-10-19T15:39:32.960Z,4.80
2022-10-19T15:42:44.552Z,4.70
2022-10-19T15:45:31.973Z,4.50
2022-10-19T15:48:11.538Z,4.50
2022-10-19T15:50:52.117Z,4.40
2022-10-19T15:53:20.564Z,4.30
2022-10-19T15:55:48.938Z,4.10
2022-10-19T15:58:16.583Z,4.10
2022-10-19T16:00:44.869Z,4.10
2022-10-19T16:03:12.500Z,4.00
2022-10-19T16:05:39.814Z,4.00
2022-10-19T16:08:10.105Z,3.90
2022-10-19T16:10:39.650Z,3.80
2022-10-19T16:13:07.183Z,3.80
2022-10-19T16:15:34.458Z,3.80
2022-10-19T16:18:01.921Z,3.80
2022-10-19T16:20:30.930Z,3.70
2022-10-19T16:22:58.723Z,3.60
2022-10-19T16:25:40.086Z,3.70
2022-10-19T16:28:09.210Z,3.60
2022-10-19T16:30:36.560Z,3.60
2022-10-19T16:33:04.063Z,3.60
2022-10-19T16:35:31.669Z,3.60
2022-10-19T16:37:59.672Z,3.50
2022-10-19T16:40:27.397Z,3.50
2022-10-19T16:42:56.884Z,3.40
2022-10-19T16:45:28.120Z,3.30
2022-10-19T16:47:56.244Z,3.30
2022-10-19T16:50:24.885Z,3.30
2022-10-19T16:53:05.866Z,3.20
2022-10-19T16:55:33.112Z,3.20
2022-10-19T16:58:01.395Z,3.10
2022-10-19T17:00:29.029Z,3.00
2022-10-19T17:02:56.296Z,2.90
2022-10-19T17:05:23.758Z,2.80
2022-10-19T17:07:50.915Z,2.70
2022-10-19T17:10:18.358Z,2.60
2022-10-19T17:12:45.900Z,2.60
2022-10-19T17:18:00.951Z,2.40
2022-10-19T17:20:28.903Z,2.40
2022-10-19T17:22:56.150Z,2.40
2022-10-19T17:25:23.765Z,2.30
2022-10-19T17:27:51.865Z,2.20
2022-10-19T17:30:19.187Z,2.10
2022-10-19T17:32:46.770Z,2.20
2022-10-19T17:35:13.985Z,2.10
2022-10-19T17:37:41.642Z,1.90
2022-10-19T17:40:09.806Z,1.80
2022-10-19T17:42:37.049Z,1.80
2022-10-19T17:45:05.042Z,1.80
2022-10-19T17:47:32.361Z,1.80
2022-10-19T17:50:03.885Z,1.70
2022-10-19T17:52:31.838Z,1.80
2022-10-19T17:55:14.678Z,1.70
2022-10-19T17:57:46.362Z,1.80
2022-10-19T18:00:15.122Z,1.80
2022-10-19T18:02:44.667Z,1.70
2022-10-19T18:05:12.569Z,1.80
2022-10-19T18:07:40.079Z,1.80
2022-10-19T18:10:07.755Z,1.80
2022-10-19T18:12:35.058Z,1.70
2022-10-19T18:15:02.239Z,1.80
2022-10-19T18:17:29.539Z,1.80
2022-10-19T18:19:57.180Z,1.80
2022-10-19T18:22:24.467Z,1.90
2022-10-19T18:25:12.700Z,1.90
2022-10-19T18:27:39.944Z,1.90
2022-10-19T18:30:09.558Z,1.80
2022-10-19T18:32:37.303Z,1.90
2022-10-19T18:35:06.319Z,1.90
2022-10-19T18:37:33.911Z,1.90
2022-10-19T18:40:01.437Z,1.90
2022-10-19T18:42:32.819Z,1.80
2022-10-19T18:45:03.203Z,1.80
2022-10-19T18:47:31.195Z,1.80
2022-10-19T18:49:59.099Z,1.80
2022-10-19T18:52:26.536Z,1.70
2022-10-19T18:54:53.750Z,1.70
2022-10-19T18:57:25.482Z,1.70
2022-10-19T18:59:55.185Z,1.80
2022-10-19T19:02:28.581Z,1.70
2022-10-19T19:05:03.176Z,1.70
2022-10-19T19:07:31.481Z,1.70
2022-10-19T19:09:59.177Z,1.70
2022-10-19T19:12:27.468Z,1.80
2022-10-19T19:14:54.858Z,1.80
2022-10-19T19:17:22.091Z,1.80
2022-10-19T19:19:49.584Z,1.80
2022-10-19T19:22:18.256Z,1.80
2022-10-19T19:24:50.339Z,1.80
2022-10-19T19:27:18.942Z,1.80
2022-10-19T19:29:47.440Z,1.70
2022-10-19T19:32:15.550Z,1.70
2022-10-19T19:34:43.444Z,1.70
2022-10-19T19:37:12.057Z,1.70
2022-10-19T19:39:43.160Z,1.60
2022-10-19T19:42:11.597Z,1.60
2022-10-19T19:44:38.760Z,1.60
2022-10-19T19:47:08.338Z,1.50
2022-10-19T19:49:35.556Z,1.50
2022-10-19T19:52:02.870Z,1.50
2022-10-19T19:54:30.766Z,1.50
2022-10-19T19:56:58.166Z,1.50
2022-10-19T19:59:25.491Z,1.40
2022-10-19T20:01:53.029Z,1.30
2022-10-19T20:04:20.794Z,1.30
2022-10-19T20:06:48.197Z,1.30
2022-10-19T20:09:15.558Z,1.20
2022-10-19T20:11:44.116Z,1.30
2022-10-19T20:14:12.666Z,1.30
2022-10-19T20:16:40.383Z,1.40
2022-10-19T20:19:14.040Z,1.30
2022-10-19T20:21:42.256Z,1.30
2022-10-19T20:24:09.879Z,1.30
2022-10-19T20:26:37.412Z,1.30
2022-10-19T20:29:05.611Z,1.20
2022-10-19T20:31:39.158Z,1.20
2022-10-19T20:34:13.802Z,1.30
2022-10-19T20:36:41.222Z,1.20
2022-10-19T20:39:09.061Z,1.30
2022-10-19T20:41:36.537Z,1.30
2022-10-19T20:44:04.693Z,1.30
2022-10-19T20:46:32.313Z,1.20
2022-10-19T20:49:01.536Z,1.10
2022-10-19T20:51:32.982Z,1.10
2022-10-19T20:54:01.930Z,1.10
2022-10-19T20:56:31.374Z,1.10
2022-10-19T20:59:00.563Z,1.00
2022-10-19T21:01:29.457Z,1.00
2022-10-19T21:03:59.063Z,0.90
2022-10-19T21:06:28.219Z,0.90
2022-10-19T21:08:55.905Z,0.80
2022-10-19T21:11:25.696Z,0.90
2022-10-19T21:13:58.704Z,0.80
2022-10-19T21:16:28.771Z,0.80
2022-10-19T21:18:56.476Z,0.70
2022-10-19T21:21:27.554Z,0.70
2022-10-19T21:23:58.158Z,0.60
2022-10-19T21:26:26.884Z,0.60
2022-10-19T21:28:54.244Z,0.60
2022-10-19T21:31:23.284Z,0.60
2022-10-19T21:33:51.829Z,0.60
2022-10-19T21:36:20.083Z,0.40
2022-10-19T21:38:47.825Z,0.40
2022-10-19T21:41:23.755Z,0.40
2022-10-19T21:43:54.583Z,0.40
2022-10-19T21:46:23.058Z,0.40
2022-10-19T21:48:50.774Z,0.40
2022-10-19T21:51:41.901Z,0.40
2022-10-19T21:54:12.945Z,0.50
2022-10-19T21:56:40.205Z,0.40
2022-10-19T21:59:07.747Z,0.40
2022-10-19T22:01:38.696Z,0.40
2022-10-19T22:04:13.627Z,0.40
2022-10-19T22:06:42.019Z,0.40
2022-10-19T22:09:11.891Z,0.40
2022-10-19T22:11:39.208Z,0.40
2022-10-19T22:14:06.422Z,0.40
2022-10-19T22:16:37.033Z,0.30
2022-10-19T22:19:05.672Z,0.30
2022-10-19T22:21:34.392Z,0.40
2022-10-19T22:24:07.856Z,0.40
2022-10-19T22:26:38.464Z,0.30
2022-10-19T22:29:06.996Z,0.40
2022-10-19T22:31:35.817Z,0.30
2022-10-19T22:34:05.612Z,0.40
2022-10-19T22:36:32.788Z,0.30
2022-10-19T22:39:00.085Z,0.30
2022-10-19T22:42:23.607Z,0.20
2022-10-19T22:44:50.746Z,0.20
2022-10-19T22:47:17.894Z,0.30
2022-10-19T22:49:45.055Z,0.20
2022-10-19T22:52:12.242Z,0.20
2022-10-19T22:54:39.492Z,0.20
2022-10-19T22:57:06.566Z,0.20
2022-10-19T22:59:33.904Z,0.30
2022-10-19T23:02:01.034Z,0.40
2022-10-19T23:04:28.136Z,0.40
2022-10-19T23:06:55.344Z,0.50
2022-10-19T23:09:22.575Z,0.50
2022-10-19T23:11:49.700Z,0.40
2022-10-19T23:14:16.875Z,0.40
2022-10-19T23:16:44.104Z,0.40
2022-10-19T23:19:11.254Z,0.40
2022-10-19T23:21:38.489Z,0.30
2022-10-19T23:24:05.698Z,0.40
2022-10-19T23:26:32.863Z,0.30
2022-10-19T23:28:59.977Z,0.30
2022-10-19T23:31:30.081Z,0.30
2022-10-19T23:33:57.258Z,0.20
2022-10-19T23:36:27.789Z,0.10
2022-10-19T23:38:56.727Z,0.20
2022-10-19T23:41:24.633Z,0.10
2022-10-19T23:43:51.899Z,0.10
2022-10-19T23:46:19.286Z,0.20
2022-10-19T23:48:46.477Z,0.10
2022-10-19T23:51:16.471Z,0.10
2022-10-19T23:53:45.633Z,0.20
2022-10-19T23:56:16.017Z,0.10
2022-10-19T23:58:43.886Z,0.10
